Time;durP1;ratioP1;P1;durP2;ratioP2;P2;SDS_P1;SDS_P2;PMS_P1;PMS_P2;Temp;Humidity;BMP_temperature;BMP_pressure;BME280_temperature;BME280_humidity;BME280_pressure;Samples;Min_cycle;Max_cycle;Signal;HPM_P1;HPM_P2
2022/01/28 00:03:08;;;;;;;34.85;4.30;;;5.40;99.90;;;;;;4987188;28;20049;-74
2022/01/28 00:05:38;;;;;;;19.98;4.05;;;5.30;99.90;;;;;;5018095;28;20026;-74
2022/01/28 00:08:05;;;;;;;38.65;5.93;;;5.30;99.90;;;;;;5017790;28;20038;-74
2022/01/28 00:10:32;;;;;;;29.92;4.38;;;5.20;99.90;;;;;;5020653;28;20017;-74
2022/01/28 00:16:38;;;;;;;27.20;5.10;;;5.20;99.90;;;;;;5019512;28;20029;-74
2022/01/28 00:36:30;;;;;;;21.77;4.97;;;5.20;99.90;;;;;;5017749;28;20116;-74
2022/01/28 00:40:21;;;;;;;20.77;2.97;;;5.00;99.90;;;;;;5022765;28;20395;-74
2022/01/28 00:42:47;;;;;;;27.75;3.03;;;5.00;99.90;;;;;;5022071;28;20022;-73
2022/01/28 00:45:13;;;;;;;19.38;3.00;;;5.00;99.90;;;;;;5022606;28;20038;-74
2022/01/28 00:47:38;;;;;;;22.27;2.70;;;5.00;99.90;;;;;;5022086;28;20029;-73
2022/01/28 00:50:05;;;;;;;23.85;3.67;;;5.00;99.90;;;;;;5022266;28;20037;-74
2022/01/28 00:52:30;;;;;;;19.98;3.08;;;5.00;99.90;;;;;;5020641;28;20033;-74
2022/01/28 00:54:56;;;;;;;17.35;2.50;;;5.00;99.90;;;;;;5020820;28;20110;-74
2022/01/28 00:57:22;;;;;;;19.13;2.45;;;4.90;99.90;;;;;;5020806;28;20053;-75
2022/01/28 00:59:47;;;;;;;17.80;3.20;;;4.90;99.90;;;;;;5020760;28;20025;-74
2022/01/28 01:02:13;;;;;;;16.73;3.15;;;4.90;99.90;;;;;;5021976;28;20034;-74
2022/01/28 01:04:40;;;;;;;24.80;3.65;;;4.90;99.90;;;;;;5022879;28;20025;-74
2022/01/28 01:07:08;;;;;;;24.40;3.97;;;4.90;99.90;;;;;;5022695;28;20089;-75
2022/01/28 01:09:34;;;;;;;20.35;3.65;;;4.90;99.90;;;;;;5021214;28;20568;-74
2022/01/28 01:11:59;;;;;;;24.42;3.47;;;4.90;99.90;;;;;;5021704;28;20112;-74
2022/01/28 01:14:25;;;;;;;25.83;3.67;;;4.90;99.90;;;;;;5020633;28;20029;-74
2022/01/28 01:17:07;;;;;;;23.50;3.63;;;4.90;99.90;;;;;;5022100;28;20182;-74
2022/01/28 01:19:38;;;;;;;23.35;4.05;;;4.90;99.90;;;;;;5023119;28;20041;-74
2022/01/28 01:22:04;;;;;;;;;;;4.90;99.90;;;;;;5027055;28;20056;-74
2022/01/28 01:24:36;;;;;;;33.58;4.00;;;4.80;99.90;;;;;;5020623;28;19909;-74
2022/01/28 01:27:03;;;;;;;;;;;4.90;99.90;;;;;;5021748;28;20025;-73
2022/01/28 01:29:29;;;;;;;22.95;3.63;;;4.80;99.90;;;;;;5019938;28;19970;-74
2022/01/28 01:32:03;;;;;;;21.65;3.38;;;4.80;99.90;;;;;;5022530;28;20029;-74
2022/01/28 01:34:29;;;;;;;22.52;3.40;;;4.80;99.90;;;;;;5021246;28;20037;-74
2022/01/28 01:36:55;;;;;;;19.58;3.75;;;4.80;99.90;;;;;;5022161;28;20030;-74
2022/01/28 01:39:24;;;;;;;31.27;3.72;;;4.90;99.90;;;;;;5024363;28;20030;-74
2022/01/28 01:41:59;;;;;;;19.33;3.50;;;4.90;99.90;;;;;;5022582;28;20365;-74
2022/01/28 01:45:38;;;;;;;18.73;3.00;;;4.90;99.90;;;;;;5020121;28;20037;-74
2022/01/28 01:52:49;;;;;;;27.10;4.45;;;4.90;99.90;;;;;;5024503;28;20391;-73
2022/01/28 01:55:15;;;;;;;28.50;3.60;;;5.00;99.90;;;;;;5020566;28;20022;-73
2022/01/28 01:57:46;;;;;;;18.33;3.50;;;5.00;99.90;;;;;;5019842;28;20037;-74
2022/01/28 02:00:13;;;;;;;18.45;3.75;;;5.00;99.90;;;;;;5021973;28;20029;-74
2022/01/28 02:02:39;;;;;;;31.73;4.25;;;5.00;99.90;;;;;;5023037;28;20104;-73
2022/01/28 02:05:05;;;;;;;27.90;4.97;;;5.00;99.90;;;;;;5018565;28;20073;-75
2022/01/28 02:07:31;;;;;;;26.98;4.22;;;5.00;99.90;;;;;;5022991;28;20386;-74
2022/01/28 02:09:57;;;;;;;37.70;4.95;;;5.00;99.90;;;;;;5019117;28;20084;-74
2022/01/28 02:12:23;;;;;;;23.98;4.82;;;5.00;99.90;;;;;;5019029;28;20033;-75
2022/01/28 02:14:49;;;;;;;24.13;4.07;;;5.00;99.90;;;;;;5020229;28;20813;-74
2022/01/28 02:17:15;;;;;;;26.10;4.63;;;5.00;99.90;;;;;;5019424;28;20088;-74
2022/01/28 02:19:40;;;;;;;34.05;5.07;;;4.90;99.90;;;;;;5020825;28;20446;-74
2022/01/28 02:22:06;;;;;;;21.40;4.30;;;4.90;99.90;;;;;;5018996;28;20520;-74
2022/01/28 02:24:44;;;;;;;27.55;4.50;;;4.90;99.90;;;;;;5019190;28;20383;-74
2022/01/28 02:27:12;;;;;;;23.63;3.10;;;4.90;99.90;;;;;;5020088;28;20026;-74
2022/01/28 02:29:38;;;;;;;24.80;4.22;;;4.90;99.90;;;;;;5020440;28;20068;-74
2022/01/28 02:32:07;;;;;;;19.33;3.70;;;4.90;99.90;;;;;;5021614;28;20057;-75
2022/01/28 02:34:35;;;;;;;20.25;4.07;;;5.00;99.90;;;;;;5021085;28;20025;-75
2022/01/28 02:37:00;;;;;;;23.90;4.55;;;5.00;99.90;;;;;;5020667;28;20033;-74
2022/01/28 02:39:26;;;;;;;20.38;3.78;;;5.10;99.90;;;;;;5019716;28;20033;-75
2022/01/28 02:41:59;;;;;;;23.63;3.22;;;5.10;99.90;;;;;;5018472;28;20136;-74
2022/01/28 02:44:46;;;;;;;26.95;3.75;;;5.10;99.90;;;;;;5018703;28;20056;-73
2022/01/28 02:47:16;;;;;;;26.70;3.90;;;5.10;99.90;;;;;;5020426;28;20022;-73
2022/01/28 02:49:43;;;;;;;27.20;4.07;;;5.10;99.90;;;;;;5018050;28;20484;-73
2022/01/28 02:52:18;;;;;;;24.60;4.43;;;5.10;99.90;;;;;;5019167;28;20111;-74
2022/01/28 02:54:47;;;;;;;26.75;4.40;;;5.10;99.90;;;;;;5020321;28;20055;-73
2022/01/28 02:57:15;;;;;;;22.05;3.78;;;5.10;99.90;;;;;;5017564;28;20041;-73
2022/01/28 02:59:41;;;;;;;32.15;5.55;;;5.10;99.90;;;;;;5030167;22;20496;-73
2022/01/28 03:02:07;;;;;;;34.30;5.03;;;5.20;99.90;;;;;;5006450;28;20034;-72
2022/01/28 03:06:58;;;;;;;26.73;4.72;;;5.20;99.90;;;;;;5006898;28;20033;-72
2022/01/28 03:09:24;;;;;;;25.90;4.20;;;5.20;99.90;;;;;;4999043;28;20045;-73
2022/01/28 03:12:12;;;;;;;35.63;4.78;;;5.10;99.90;;;;;;4996055;28;20032;-72
2022/01/28 03:14:48;;;;;;;26.98;4.32;;;5.10;99.90;;;;;;4995873;28;20088;-72
2022/01/28 03:17:37;;;;;;;22.60;3.55;;;5.10;99.90;;;;;;4995094;28;20062;-72
2022/01/28 03:22:55;;;;;;;30.77;5.30;;;5.20;99.90;;;;;;4997209;28;20045;-72
2022/01/28 03:25:21;;;;;;;26.27;5.38;;;5.20;99.90;;;;;;4996731;28;20061;-72
2022/01/28 03:30:16;;;;;;;23.00;3.55;;;5.20;99.90;;;;;;5003208;28;20259;-73
2022/01/28 03:32:42;;;;;;;14.02;3.00;;;5.20;99.90;;;;;;4997463;28;20038;-72
2022/01/28 03:35:10;;;;;;;24.35;3.08;;;5.20;99.90;;;;;;4995773;28;20029;-72
2022/01/28 03:37:35;;;;;;;25.42;4.05;;;5.20;99.90;;;;;;4997450;28;20042;-72
2022/01/28 03:40:04;;;;;;;19.88;3.13;;;5.10;99.90;;;;;;4978876;28;20033;-71
2022/01/28 03:42:30;;;;;;;21.77;3.55;;;5.10;99.90;;;;;;4998964;28;20026;-71
2022/01/28 03:44:56;;;;;;;16.92;3.53;;;5.10;99.90;;;;;;4996377;28;20029;-73
2022/01/28 03:47:22;;;;;;;19.10;3.40;;;5.10;99.90;;;;;;4999766;28;20104;-72
2022/01/28 03:49:48;;;;;;;25.98;3.90;;;5.10;99.90;;;;;;4994159;28;20030;-73
2022/01/28 03:52:14;;;;;;;31.05;3.80;;;5.10;99.90;;;;;;4996781;28;20042;-73
2022/01/28 03:54:39;;;;;;;23.38;3.75;;;5.10;99.90;;;;;;4995713;28;20108;-73
2022/01/28 03:57:07;;;;;;;24.45;4.28;;;5.00;99.90;;;;;;4996621;28;20061;-72
2022/01/28 03:59:33;;;;;;;21.23;3.20;;;5.00;99.90;;;;;;4995262;28;20044;-72
2022/01/28 04:01:59;;;;;;;26.77;3.13;;;5.00;99.90;;;;;;4994952;28;20101;-73
2022/01/28 04:12:24;;;;;;;22.48;3.72;;;4.90;99.90;;;;;;4999102;28;20508;-72
2022/01/28 04:17:24;;;;;;;21.30;3.60;;;4.90;99.90;;;;;;5002575;28;20041;-72
2022/01/28 04:19:51;;;;;;;18.05;3.40;;;5.00;99.90;;;;;;4998459;28;20026;-73
2022/01/28 04:22:18;;;;;;;34.50;4.15;;;5.00;99.90;;;;;;5000277;28;20403;-73
2022/01/28 04:24:44;;;;;;;21.85;4.25;;;5.00;99.90;;;;;;4999910;28;20026;-74
2022/01/28 04:27:10;;;;;;;30.05;3.47;;;5.00;99.90;;;;;;5000173;28;20023;-74
2022/01/28 04:29:35;;;;;;;23.35;3.75;;;5.00;99.90;;;;;;4999785;28;20061;-72
2022/01/28 04:32:01;;;;;;;29.60;4.70;;;4.90;99.90;;;;;;4999302;28;20030;-72
2022/01/28 04:34:27;;;;;;;25.17;4.30;;;4.90;99.90;;;;;;5000868;28;20032;-73
2022/01/28 04:39:30;;;;;;;22.45;3.47;;;4.90;99.90;;;;;;5001064;28;20026;-72
2022/01/28 04:42:13;;;;;;;28.17;3.83;;;4.90;99.90;;;;;;4998179;28;20025;-72
2022/01/28 04:52:48;;;;;;;18.60;3.47;;;4.80;99.90;;;;;;4998474;28;20030;-72
2022/01/28 05:00:47;;;;;;;24.15;3.63;;;4.80;99.90;;;;;;5000136;28;20076;-73
2022/01/28 05:23:17;;;;;;;26.23;3.63;;;4.70;99.90;;;;;;4997541;28;20039;-72
2022/01/28 05:24:06;;;;;;;21.08;3.53;;;4.80;99.90;;;;;;5000193;28;20034;-72
2022/01/28 05:25:47;;;;;;;22.17;3.13;;;4.80;99.90;;;;;;4992980;28;20597;-72
2022/01/28 05:28:17;;;;;;;35.35;4.53;;;4.80;99.90;;;;;;4998765;28;20059;-72
2022/01/28 05:30:43;;;;;;;20.75;4.10;;;4.80;99.90;;;;;;4998625;28;20115;-72
2022/01/28 05:33:08;;;;;;;28.95;3.72;;;4.80;99.90;;;;;;4998832;28;20027;-72
2022/01/28 05:35:34;;;;;;;19.63;3.25;;;4.80;99.90;;;;;;4998156;28;20314;-72
2022/01/28 05:38:00;;;;;;;23.98;3.25;;;4.80;99.90;;;;;;4998181;28;20034;-72
2022/01/28 05:40:25;;;;;;;14.93;2.60;;;4.80;99.90;;;;;;4999509;28;20132;-72
2022/01/28 05:42:51;;;;;;;20.95;2.75;;;4.80;99.90;;;;;;4999694;28;20022;-72
2022/01/28 05:45:17;;;;;;;24.35;3.63;;;4.80;99.90;;;;;;4999825;28;20030;-72
2022/01/28 05:47:43;;;;;;;19.05;3.00;;;4.80;99.90;;;;;;4995906;28;20248;-72
2022/01/28 05:50:09;;;;;;;17.65;3.33;;;4.80;99.90;;;;;;4996939;28;20041;-73
2022/01/28 05:52:34;;;;;;;15.95;2.78;;;4.80;99.90;;;;;;4997986;28;20435;-72
2022/01/28 05:55:01;;;;;;;24.52;3.80;;;4.80;99.90;;;;;;5007547;28;20033;-72
2022/01/28 05:57:26;;;;;;;17.13;3.28;;;4.90;99.90;;;;;;5002129;28;20062;-72
2022/01/28 05:59:52;;;;;;;22.42;3.42;;;4.90;99.90;;;;;;4995734;28;20080;-72
2022/01/28 06:02:18;;;;;;;18.52;3.15;;;5.00;99.90;;;;;;4993758;28;20079;-72
2022/01/28 06:04:45;;;;;;;23.95;3.13;;;5.00;99.90;;;;;;4999520;28;20034;-72
2022/01/28 06:07:10;;;;;;;21.85;3.40;;;5.00;99.90;;;;;;4997439;28;20044;-72
2022/01/28 06:09:36;;;;;;;26.45;4.20;;;5.00;99.90;;;;;;4998362;28;20495;-72
2022/01/28 06:12:02;;;;;;;27.02;4.20;;;5.00;99.90;;;;;;4999324;28;20030;-72
2022/01/28 06:14:27;;;;;;;23.42;4.15;;;5.00;99.90;;;;;;4999113;28;20038;-72
2022/01/28 06:16:53;;;;;;;22.95;3.88;;;5.00;99.90;;;;;;4997425;28;20037;-72
2022/01/28 06:19:19;;;;;;;21.83;3.95;;;5.00;99.90;;;;;;4997465;28;20026;-72
2022/01/28 06:21:44;;;;;;;31.77;4.72;;;5.00;99.90;;;;;;4997731;28;20030;-73
2022/01/28 06:24:10;;;;;;;29.25;3.95;;;5.00;99.90;;;;;;4999395;28;20133;-73
2022/01/28 06:26:36;;;;;;;19.35;3.20;;;4.90;99.90;;;;;;4996358;28;20038;-72
2022/01/28 06:29:01;;;;;;;23.42;3.40;;;5.00;99.90;;;;;;4997007;28;20531;-72
2022/01/28 06:31:27;;;;;;;20.35;3.83;;;5.10;99.90;;;;;;4999650;28;20042;-72
2022/01/28 06:33:53;;;;;;;20.33;3.75;;;5.10;99.90;;;;;;4996225;28;20565;-72
2022/01/28 06:36:21;;;;;;;32.00;3.40;;;5.00;99.90;;;;;;4997987;28;20555;-72
2022/01/28 06:38:47;;;;;;;19.88;3.00;;;5.00;99.90;;;;;;4996904;28;20045;-72
2022/01/28 06:41:13;;;;;;;17.38;3.90;;;5.00;99.90;;;;;;4993871;28;20045;-71
2022/01/28 06:43:39;;;;;;;19.42;2.97;;;5.00;99.90;;;;;;4995543;28;20018;-73
2022/01/28 06:46:05;;;;;;;22.65;3.25;;;5.00;99.90;;;;;;4996460;28;20038;-73
2022/01/28 06:48:31;;;;;;;22.63;4.05;;;5.00;99.90;;;;;;4998397;28;20039;-73
2022/01/28 06:50:59;;;;;;;14.70;2.85;;;5.00;99.90;;;;;;4996760;28;20026;-72
2022/01/28 06:53:24;;;;;;;19.58;2.85;;;5.00;99.90;;;;;;4997069;28;20045;-72
2022/01/28 06:55:50;;;;;;;21.17;2.83;;;5.00;99.90;;;;;;4992049;28;20026;-72
2022/01/28 06:58:16;;;;;;;20.88;3.47;;;5.10;99.90;;;;;;4997675;28;20120;-73
2022/01/28 07:00:41;;;;;;;20.33;3.17;;;5.00;99.90;;;;;;4997262;28;20105;-72
2022/01/28 07:03:09;;;;;;;21.75;2.97;;;5.00;99.90;;;;;;4996730;28;20034;-72
2022/01/28 07:05:36;;;;;;;21.25;3.13;;;5.00;99.90;;;;;;4994887;28;20073;-75
2022/01/28 07:08:03;;;;;;;16.42;3.35;;;5.00;99.90;;;;;;4992664;28;20026;-72
2022/01/28 07:10:28;;;;;;;22.42;4.50;;;5.00;99.90;;;;;;4995913;28;20030;-71
2022/01/28 07:12:54;;;;;;;23.75;4.35;;;5.00;99.90;;;;;;4998011;28;20413;-71
2022/01/28 07:15:23;;;;;;;25.08;3.72;;;5.00;99.90;;;;;;5000142;28;20030;-71
2022/01/28 07:17:49;;;;;;;22.05;3.90;;;5.00;99.90;;;;;;4997146;28;20484;-71
2022/01/28 07:20:17;;;;;;;30.73;4.00;;;5.00;99.90;;;;;;4996221;28;20045;-71
2022/01/28 07:22:43;;;;;;;25.00;3.75;;;5.00;99.90;;;;;;4994334;28;20030;-71
2022/01/28 07:25:09;;;;;;;21.92;4.45;;;5.00;99.90;;;;;;4997310;28;20404;-71
2022/01/28 07:27:34;;;;;;;25.52;4.10;;;5.00;99.90;;;;;;4997302;28;20388;-71
2022/01/28 07:30:00;;;;;;;24.40;4.18;;;4.90;99.90;;;;;;4994701;28;20101;-71
2022/01/28 07:32:26;;;;;;;23.50;4.75;;;4.90;99.90;;;;;;4997629;28;20038;-72
2022/01/28 07:34:52;;;;;;;21.13;3.33;;;4.80;99.90;;;;;;4997139;28;20031;-70
2022/01/28 07:37:17;;;;;;;26.63;3.75;;;4.80;99.90;;;;;;5000147;28;20045;-72
2022/01/28 07:39:45;;;;;;;22.20;3.60;;;4.80;99.90;;;;;;4995404;28;20363;-71
2022/01/28 07:42:13;;;;;;;29.42;4.38;;;4.80;99.90;;;;;;5000555;28;20114;-71
2022/01/28 07:44:39;;;;;;;30.23;4.78;;;4.80;99.90;;;;;;5001323;28;20027;-73
2022/01/28 07:47:05;;;;;;;25.73;4.25;;;4.80;99.90;;;;;;5002514;28;20034;-71
2022/01/28 07:49:31;;;;;;;22.95;4.07;;;4.70;99.90;;;;;;5001152;28;20511;-73
2022/01/28 07:51:56;;;;;;;21.30;4.13;;;4.70;99.90;;;;;;5002154;28;20042;-74
2022/01/28 07:54:22;;;;;;;26.35;4.53;;;4.70;99.90;;;;;;5002258;28;20500;-79
2022/01/28 07:56:52;;;;;;;28.30;4.32;;;4.80;99.90;;;;;;4992505;28;20034;-75
2022/01/28 07:59:18;;;;;;;28.02;5.63;;;4.70;99.90;;;;;;5000174;28;20085;-72
2022/01/28 08:01:44;;;;;;;28.77;3.95;;;4.70;99.90;;;;;;4997473;28;20045;-73
2022/01/28 08:04:10;;;;;;;22.58;3.60;;;4.70;99.90;;;;;;4999574;28;20116;-75
2022/01/28 08:06:36;;;;;;;23.67;4.68;;;4.60;99.90;;;;;;5002565;28;20029;-77
2022/01/28 08:09:03;;;;;;;23.92;4.60;;;4.70;99.90;;;;;;5000730;28;20472;-74
2022/01/28 08:11:28;;;;;;;26.10;5.00;;;4.70;99.90;;;;;;4994712;28;20037;-73
2022/01/28 08:13:55;;;;;;;21.30;3.80;;;4.70;99.90;;;;;;4999044;28;20113;-73
2022/01/28 08:16:21;;;;;;;34.72;5.57;;;4.70;99.90;;;;;;4994778;28;20078;-73
2022/01/28 08:18:46;;;;;;;24.27;4.63;;;4.70;99.90;;;;;;5001223;28;20547;-72
2022/01/28 08:21:14;;;;;;;26.67;4.72;;;4.70;99.90;;;;;;5003287;28;20113;-73
2022/01/28 08:23:40;;;;;;;24.52;5.28;;;4.80;99.90;;;;;;5001944;28;20342;-73
2022/01/28 08:26:06;;;;;;;27.35;4.00;;;4.80;99.90;;;;;;4996723;28;20523;-72
2022/01/28 08:28:31;;;;;;;27.73;4.72;;;4.80;99.90;;;;;;4997997;28;21124;-72
2022/01/28 08:30:59;;;;;;;24.52;4.00;;;4.70;99.90;;;;;;5000901;28;20080;-72
2022/01/28 08:33:37;;;;;;;31.98;6.20;;;4.80;99.90;;;;;;5003204;28;20257;-72
2022/01/28 08:36:03;;;;;;;22.38;3.58;;;4.70;99.90;;;;;;4999101;28;20413;-72
2022/01/28 08:38:38;;;;;;;30.10;4.03;;;4.70;99.90;;;;;;4998199;28;20558;-72
2022/01/28 08:41:04;;;;;;;16.92;3.53;;;4.80;99.90;;;;;;4999661;28;20026;-73
2022/01/28 08:43:32;;;;;;;24.23;3.75;;;4.70;99.90;;;;;;4999645;28;20057;-72
2022/01/28 08:45:58;;;;;;;32.85;5.03;;;4.80;99.90;;;;;;4996625;28;20026;-73
2022/01/28 08:48:24;;;;;;;28.67;4.22;;;4.80;99.90;;;;;;5002383;28;20491;-73
2022/01/28 08:50:49;;;;;;;24.83;5.18;;;4.90;99.90;;;;;;5000303;28;20030;-73
2022/01/28 08:53:15;;;;;;;28.63;4.93;;;4.80;99.90;;;;;;4999917;28;20493;-73
2022/01/28 08:55:41;;;;;;;29.13;4.75;;;4.90;99.90;;;;;;4997981;28;20040;-73
2022/01/28 08:58:08;;;;;;;30.02;4.40;;;4.90;99.90;;;;;;5002923;28;20035;-72
2022/01/28 09:00:34;;;;;;;27.13;4.47;;;4.90;99.90;;;;;;4999677;28;20038;-73
2022/01/28 09:03:00;;;;;;;27.23;4.63;;;4.80;99.90;;;;;;4999662;28;20120;-74
2022/01/28 09:05:27;;;;;;;27.55;4.45;;;4.90;99.90;;;;;;4997987;28;20097;-72
2022/01/28 09:07:53;;;;;;;26.83;4.25;;;4.90;99.90;;;;;;4998519;28;20138;-72
2022/01/28 09:10:22;;;;;;;29.50;4.10;;;4.90;99.90;;;;;;4998849;28;20571;-72
2022/01/28 09:13:09;;;;;;;25.00;3.88;;;4.90;99.90;;;;;;4996409;28;20033;-73
2022/01/28 09:15:36;;;;;;;37.05;4.05;;;4.90;99.90;;;;;;5000527;28;20029;-73
2022/01/28 09:18:02;;;;;;;21.63;4.65;;;5.00;99.90;;;;;;4998710;28;20042;-73
2022/01/28 09:20:29;;;;;;;23.73;4.03;;;5.00;99.90;;;;;;4999323;28;20055;-72
2022/01/28 09:22:57;;;;;;;27.48;4.47;;;5.00;99.90;;;;;;4999760;28;20084;-72
2022/01/28 09:25:22;;;;;;;30.25;4.97;;;5.00;99.90;;;;;;4998821;28;20068;-72
2022/01/28 09:27:48;;;;;;;22.92;3.92;;;5.10;99.90;;;;;;4997465;28;20026;-73
2022/01/28 09:30:13;;;;;;;36.08;4.68;;;5.00;99.90;;;;;;4996477;28;20103;-74
2022/01/28 09:32:39;;;;;;;29.85;4.38;;;5.10;99.90;;;;;;4997686;28;20089;-74
2022/01/28 09:35:05;;;;;;;34.75;4.35;;;5.10;99.90;;;;;;4996897;28;20233;-72
2022/01/28 09:37:31;;;;;;;25.73;3.65;;;5.10;99.90;;;;;;5000773;28;20042;-72
2022/01/28 09:39:57;;;;;;;28.98;3.80;;;5.10;99.90;;;;;;4998663;28;20451;-72
2022/01/28 09:42:27;;;;;;;28.88;4.53;;;5.20;99.90;;;;;;4998170;28;20026;-71
2022/01/28 09:44:55;;;;;;;24.42;4.70;;;5.20;99.90;;;;;;4998939;28;20080;-72
2022/01/28 09:47:21;;;;;;;30.58;4.45;;;5.20;99.90;;;;;;4996886;28;20117;-74
2022/01/28 09:49:48;;;;;;;21.33;3.85;;;5.20;99.90;;;;;;4997646;28;20030;-73
2022/01/28 09:52:14;;;;;;;18.35;3.75;;;5.30;99.90;;;;;;4997285;28;20030;-73
2022/01/28 09:54:43;;;;;;;20.38;4.65;;;5.30;99.90;;;;;;4997388;28;20038;-73
2022/01/28 09:57:09;;;;;;;22.25;4.60;;;5.40;99.90;;;;;;4997089;28;20034;-73
2022/01/28 09:59:37;;;;;;;27.67;4.82;;;5.40;99.90;;;;;;4996185;28;20061;-73
2022/01/28 10:02:04;;;;;;;35.55;5.15;;;5.40;99.90;;;;;;5000566;28;20022;-73
2022/01/28 10:04:29;;;;;;;30.77;4.53;;;5.40;99.90;;;;;;4995524;28;20049;-72
2022/01/28 10:06:57;;;;;;;28.30;4.35;;;5.40;99.90;;;;;;4999305;28;20030;-73
2022/01/28 10:09:23;;;;;;;24.15;3.65;;;5.50;99.90;;;;;;4997975;28;20038;-72
2022/01/28 10:11:53;;;;;;;24.58;4.25;;;5.50;99.90;;;;;;4993617;28;20030;-73
2022/01/28 10:14:25;;;;;;;24.58;4.30;;;5.50;99.90;;;;;;4999383;28;20427;-72
2022/01/28 10:16:59;;;;;;;28.77;5.50;;;5.50;99.90;;;;;;4998010;28;20060;-72
2022/01/28 10:19:26;;;;;;;27.13;4.18;;;5.50;99.90;;;;;;4999410;28;20038;-73
2022/01/28 10:21:53;;;;;;;22.08;4.25;;;5.50;99.90;;;;;;4997036;28;20135;-73
2022/01/28 10:24:26;;;;;;;18.98;3.63;;;5.50;99.90;;;;;;4998664;28;20034;-73
2022/01/28 10:26:51;;;;;;;20.50;3.88;;;5.60;99.90;;;;;;4999213;28;20030;-73
2022/01/28 10:29:20;;;;;;;20.63;3.80;;;5.60;99.90;;;;;;4997557;28;20098;-73
2022/01/28 10:31:48;;;;;;;23.02;3.80;;;5.70;99.90;;;;;;4999381;28;20026;-72
2022/01/28 10:34:16;;;;;;;22.92;4.55;;;5.70;99.90;;;;;;4996264;28;20053;-73
2022/01/28 10:36:42;;;;;;;21.20;4.35;;;5.70;99.90;;;;;;4996922;28;20037;-73
2022/01/28 10:39:22;;;;;;;24.77;4.03;;;5.80;99.90;;;;;;4998167;28;20034;-73
2022/01/28 10:42:15;;;;;;;18.02;3.70;;;5.80;99.90;;;;;;5002192;28;20432;-74
2022/01/28 10:44:56;;;;;;;28.77;4.10;;;5.80;99.90;;;;;;5007578;28;20113;-74
2022/01/28 10:47:33;;;;;;;25.60;4.55;;;5.80;99.90;;;;;;4997991;28;20042;-72
2022/01/28 10:50:00;;;;;;;17.25;3.83;;;5.80;99.90;;;;;;4997333;28;20034;-72
2022/01/28 10:52:33;;;;;;;21.60;3.40;;;5.90;99.90;;;;;;4996313;28;20031;-73
2022/01/28 10:55:00;;;;;;;29.35;4.50;;;5.90;99.90;;;;;;4996949;28;20113;-74
2022/01/28 10:57:34;;;;;;;20.35;3.35;;;5.90;99.90;;;;;;4996872;28;20132;-73
2022/01/28 11:00:02;;;;;;;33.45;4.32;;;5.90;99.90;;;;;;4995293;28;20511;-72
2022/01/28 11:02:29;;;;;;;22.60;4.05;;;6.00;99.90;;;;;;4997655;28;20076;-72
2022/01/28 11:04:56;;;;;;;15.00;2.90;;;6.00;99.90;;;;;;5000063;28;20040;-73
2022/01/28 11:07:22;;;;;;;16.65;3.17;;;6.00;99.90;;;;;;4995499;28;20440;-73
2022/01/28 11:09:49;;;;;;;25.73;4.35;;;6.10;99.90;;;;;;4997385;28;20423;-73
2022/01/28 11:12:16;;;;;;;25.42;3.65;;;6.10;99.90;;;;;;4992711;28;20505;-73
2022/01/28 11:14:42;;;;;;;27.20;4.22;;;6.10;99.90;;;;;;4979062;28;20057;-74
2022/01/28 11:17:10;;;;;;;22.70;4.57;;;6.10;99.90;;;;;;4995889;28;20461;-73
2022/01/28 11:19:41;;;;;;;26.77;4.45;;;6.20;99.90;;;;;;4996899;28;20612;-73
2022/01/28 11:22:12;;;;;;;21.67;3.50;;;6.20;99.90;;;;;;4992511;28;20072;-73
2022/01/28 11:25:15;;;;;;;24.45;3.92;;;6.20;99.90;;;;;;4996735;28;20065;-73
2022/01/28 11:27:46;;;;;;;20.95;3.55;;;6.10;99.90;;;;;;4997313;28;20030;-73
2022/01/28 11:30:17;;;;;;;20.25;4.53;;;6.20;99.90;;;;;;4996710;28;20048;-74
2022/01/28 11:33:03;;;;;;;23.55;4.35;;;6.20;99.90;;;;;;4995046;28;20161;-73
2022/01/28 11:35:40;;;;;;;17.70;3.33;;;6.30;99.90;;;;;;4997746;28;20510;-73
2022/01/28 11:38:24;;;;;;;21.25;3.45;;;6.30;99.90;;;;;;4995933;28;20044;-73
2022/01/28 11:40:57;;;;;;;29.98;4.80;;;6.30;99.90;;;;;;4996832;28;20033;-72
2022/01/28 11:43:26;;;;;;;20.42;4.13;;;6.30;99.90;;;;;;4996473;28;20084;-73
2022/01/28 11:46:10;;;;;;;17.80;3.75;;;6.40;99.90;;;;;;4998387;28;20018;-72
2022/01/28 11:48:58;;;;;;;20.15;3.67;;;6.40;99.90;;;;;;4994415;28;20284;-73
2022/01/28 11:51:32;;;;;;;26.17;3.47;;;6.50;99.90;;;;;;4994751;28;20062;-80
2022/01/28 11:54:00;;;;;;;17.20;3.38;;;6.60;99.90;;;;;;4991451;28;20025;-74
2022/01/28 11:56:28;;;;;;;18.02;2.95;;;6.50;99.90;;;;;;4987934;28;20034;-74
2022/01/28 11:59:08;;;;;;;15.63;3.65;;;6.50;99.90;;;;;;4993928;28;20049;-74
2022/01/28 12:01:39;;;;;;;22.10;3.67;;;6.60;99.90;;;;;;4984680;28;20021;-74
2022/01/28 12:04:34;;;;;;;26.10;3.97;;;6.50;99.90;;;;;;5001329;28;20037;-75
2022/01/28 12:07:15;;;;;;;23.75;3.25;;;6.50;99.90;;;;;;4994226;28;20562;-72
2022/01/28 12:09:44;;;;;;;15.05;3.70;;;6.50;99.90;;;;;;5001179;28;20395;-73
2022/01/28 12:12:59;;;;;;;15.27;3.13;;;6.60;99.90;;;;;;5005619;28;20117;-74
2022/01/28 12:15:30;;;;;;;20.08;4.07;;;6.50;99.90;;;;;;4983401;28;20026;-72
2022/01/28 12:18:11;;;;;;;23.85;4.32;;;6.50;99.90;;;;;;4979064;28;20030;-73
2022/01/28 12:20:43;;;;;;;20.13;4.38;;;6.50;99.90;;;;;;4995867;28;20030;-72
2022/01/28 12:23:09;;;;;;;25.23;4.85;;;6.50;99.90;;;;;;4991400;28;20034;-73
2022/01/28 12:25:40;;;;;;;19.17;3.25;;;6.50;99.90;;;;;;5000208;28;20037;-73
2022/01/28 12:28:17;;;;;;;27.00;4.60;;;6.50;99.90;;;;;;4996627;28;20025;-73
2022/01/28 12:31:01;;;;;;;26.73;4.35;;;6.50;99.90;;;;;;5001537;28;20061;-72
2022/01/28 12:33:29;;;;;;;28.42;3.67;;;6.50;99.90;;;;;;5000133;28;20030;-74
2022/01/28 12:35:58;;;;;;;18.23;3.85;;;6.50;99.90;;;;;;5003650;28;20030;-74
2022/01/28 12:38:28;;;;;;;25.88;4.45;;;6.60;99.90;;;;;;5000252;28;20431;-71
2022/01/28 12:40:54;;;;;;;28.70;4.65;;;6.60;99.90;;;;;;5000853;28;20029;-73
2022/01/28 12:43:23;;;;;;;27.83;4.25;;;6.50;99.90;;;;;;4998336;28;20089;-72
2022/01/28 12:45:59;;;;;;;25.92;4.75;;;6.50;99.90;;;;;;5012641;28;21225;-73
2022/01/28 12:48:26;;;;;;;23.55;3.90;;;6.50;99.90;;;;;;5013442;28;20117;-72
2022/01/28 12:50:53;;;;;;;25.38;3.80;;;6.50;99.90;;;;;;5012987;28;20080;-73
2022/01/28 12:53:39;;;;;;;21.33;4.15;;;6.50;99.90;;;;;;5016900;28;20033;-72
2022/01/28 12:56:07;;;;;;;21.52;4.82;;;6.50;99.90;;;;;;5019300;28;20542;-73
2022/01/28 12:58:46;;;;;;;23.23;3.92;;;6.50;99.90;;;;;;5018325;28;20426;-73
2022/01/28 13:01:14;;;;;;;24.85;4.47;;;6.50;99.90;;;;;;5020587;28;20471;-73
2022/01/28 13:03:51;;;;;;;27.60;3.63;;;6.50;99.90;;;;;;5016058;28;20079;-72
2022/01/28 13:08:55;;;;;;;24.40;3.67;;;6.50;99.90;;;;;;5021211;28;20025;-73
2022/01/28 13:11:21;;;;;;;20.48;3.72;;;6.50;99.90;;;;;;5017952;28;20030;-72
2022/01/28 13:13:55;;;;;;;29.02;3.88;;;6.50;99.90;;;;;;5022079;28;20033;-73
2022/01/28 13:16:35;;;;;;;23.98;3.42;;;6.50;99.90;;;;;;5014403;28;20033;-73
2022/01/28 13:19:02;;;;;;;16.65;4.00;;;6.50;99.90;;;;;;5018892;28;20562;-73
2022/01/28 13:21:29;;;;;;;25.15;4.15;;;6.50;99.90;;;;;;5015447;28;20061;-72
2022/01/28 13:24:18;;;;;;;30.00;6.32;;;6.60;99.90;;;;;;5017102;28;20052;-72
2022/01/28 13:27:08;;;;;;;20.55;3.90;;;6.60;99.90;;;;;;5016190;28;20033;-72
2022/01/28 13:29:41;;;;;;;23.38;4.28;;;6.60;99.90;;;;;;5015091;28;20030;-73
2022/01/28 13:32:12;;;;;;;27.63;4.65;;;6.70;99.90;;;;;;5011059;28;20040;-72
2022/01/28 13:34:50;;;;;;;27.35;4.55;;;6.60;99.90;;;;;;4997530;28;20057;-72
2022/01/28 13:37:39;;;;;;;19.92;3.53;;;6.60;99.90;;;;;;5013002;28;20034;-73
2022/01/28 13:40:18;;;;;;;19.65;3.20;;;6.60;99.90;;;;;;4997684;28;20128;-73
2022/01/28 13:43:08;;;;;;;17.52;3.13;;;6.60;99.90;;;;;;5015854;28;20025;-72
2022/01/28 13:45:50;;;;;;;24.48;4.05;;;6.60;99.90;;;;;;5014841;28;20108;-72
2022/01/28 13:48:22;;;;;;;22.75;4.60;;;6.60;99.90;;;;;;4998874;28;20045;-72
2022/01/28 13:50:50;;;;;;;25.83;4.93;;;6.50;99.90;;;;;;5017450;28;20357;-72
2022/01/28 13:55:44;;;;;;;47.45;17.92;;;6.40;99.90;;;;;;5015340;28;20022;-73
2022/01/28 13:58:10;;;;;;;79.63;40.20;;;6.30;99.90;;;;;;4999858;28;20034;-73
2022/01/28 14:00:59;;;;;;;23.35;5.13;;;6.30;99.90;;;;;;5013834;28;20053;-73
2022/01/28 14:03:27;;;;;;;20.63;3.42;;;6.30;99.90;;;;;;5018063;28;20208;-73
2022/01/28 14:05:56;;;;;;;26.23;4.32;;;6.20;99.90;;;;;;5020306;28;20021;-73
2022/01/28 14:08:45;;;;;;;30.02;5.05;;;6.20;99.90;;;;;;4999874;28;20032;-74
2022/01/28 14:11:39;;;;;;;18.13;3.72;;;6.20;99.90;;;;;;5017603;28;20481;-74
2022/01/28 14:14:48;;;;;;;25.15;4.07;;;6.20;99.90;;;;;;5014308;28;20075;-74
2022/01/28 14:17:08;;;;;;;;;;;6.30;99.90;;;;;;5012048;28;20045;-74
2022/01/28 14:19:35;;;;;;;18.13;3.38;;;6.30;99.90;;;;;;4999889;28;19913;-73
2022/01/28 14:22:02;;;;;;;21.60;3.65;;;6.30;99.90;;;;;;5013354;28;20018;-73
2022/01/28 14:24:33;;;;;;;22.63;3.10;;;6.20;99.90;;;;;;5015868;28;20403;-73
2022/01/28 14:32:12;;;;;;;22.50;3.72;;;6.30;99.90;;;;;;5016623;28;20545;-74